Time;durP1;ratioP1;P1;durP2;ratioP2;P2;SDS_P1;SDS_P2;PMS_P1;PMS_P2;Temp;Humidity;BMP_temperature;BMP_pressure;BME280_temperature;BME280_humidity;BME280_pressure;Samples;Min_cycle;Max_cycle;Signal;HPM_P1;HPM_P2
2023/09/03 00:01:42;;;;;;;13.73;12.32;;;461.40;2380.80;;;;;;5029585;28;20028;-57
2023/09/03 00:04:08;;;;;;;13.73;12.35;;;461.40;2380.80;;;;;;5029500;28;20053;-56
2023/09/03 00:06:34;;;;;;;16.73;12.57;;;461.40;2380.80;;;;;;5029043;28;20479;-57
2023/09/03 00:09:00;;;;;;;14.73;12.85;;;461.40;2380.80;;;;;;5029155;28;20037;-57
2023/09/03 00:11:25;;;;;;;13.02;11.80;;;461.20;2380.80;;;;;;5028696;28;20475;-57
2023/09/03 00:13:51;;;;;;;14.10;12.70;;;461.30;2380.80;;;;;;5027921;28;20037;-57
2023/09/03 00:16:17;;;;;;;15.75;12.85;;;461.30;2380.80;;;;;;5029169;28;20025;-57
2023/09/03 00:18:42;;;;;;;14.25;12.23;;;461.20;2380.80;;;;;;5029019;28;20057;-57
2023/09/03 00:21:08;;;;;;;14.43;12.93;;;461.10;2380.80;;;;;;5029164;28;20022;-57
2023/09/03 00:23:34;;;;;;;14.18;12.75;;;461.10;2380.80;;;;;;5028309;28;20067;-57
2023/09/03 00:26:01;;;;;;;16.40;13.98;;;461.10;2380.80;;;;;;5028826;28;20026;-59
2023/09/03 00:28:27;;;;;;;13.10;11.82;;;461.10;2380.80;;;;;;5028550;28;20793;-57
2023/09/03 00:31:10;;;;;;;14.52;12.93;;;461.00;2380.80;;;;;;5028950;28;20100;-57
2023/09/03 00:33:37;;;;;;;14.93;13.43;;;461.00;2380.80;;;;;;5029023;28;20017;-57
2023/09/03 00:36:05;;;;;;;13.35;11.75;;;461.00;2380.80;;;;;;5028884;28;20076;-57
2023/09/03 00:38:31;;;;;;;14.48;13.02;;;460.90;2380.80;;;;;;5028736;28;20060;-57
2023/09/03 00:40:57;;;;;;;13.00;11.77;;;460.90;2380.80;;;;;;5028468;28;20025;-57
2023/09/03 00:43:23;;;;;;;12.60;11.32;;;460.80;2380.80;;;;;;5028143;28;20380;-57
2023/09/03 00:45:49;;;;;;;14.20;12.70;;;460.90;2380.80;;;;;;5028626;28;20046;-56
2023/09/03 00:48:23;;;;;;;12.82;11.63;;;460.90;2380.80;;;;;;5028348;28;20490;-57
2023/09/03 00:50:51;;;;;;;13.90;12.23;;;460.90;2380.80;;;;;;5032198;28;20032;-57
2023/09/03 00:53:17;;;;;;;14.57;13.10;;;460.90;2380.80;;;;;;5035237;28;20038;-59
2023/09/03 00:55:43;;;;;;;16.92;13.50;;;460.90;2380.80;;;;;;5034867;28;20026;-57
2023/09/03 00:58:09;;;;;;;13.35;12.05;;;460.90;2380.80;;;;;;5035738;28;20116;-58
2023/09/03 01:00:35;;;;;;;15.93;13.23;;;460.90;2380.80;;;;;;5035100;28;20022;-57
2023/09/03 01:03:03;;;;;;;13.20;11.82;;;460.80;2380.80;;;;;;5035265;28;20022;-57
2023/09/03 01:05:28;;;;;;;12.07;10.77;;;460.90;2380.80;;;;;;5035133;28;20418;-58
2023/09/03 01:07:57;;;;;;;14.02;12.60;;;460.80;2380.80;;;;;;5034806;28;20025;-57
2023/09/03 01:10:40;;;;;;;14.65;12.77;;;460.80;2380.80;;;;;;5035062;28;20037;-57
2023/09/03 01:13:17;;;;;;;;;;;460.80;2380.80;;;;;;5033986;28;20045;-57
2023/09/03 01:15:50;;;;;;;13.10;11.70;;;460.80;2380.80;;;;;;5021913;28;19909;-57
2023/09/03 01:18:25;;;;;;;14.35;11.02;;;460.80;2380.80;;;;;;5035100;28;20368;-57
2023/09/03 01:21:25;;;;;;;12.48;11.07;;;460.90;2380.80;;;;;;5021735;28;20079;-57
2023/09/03 01:24:02;;;;;;;14.43;11.10;;;460.90;2380.80;;;;;;5034688;28;20467;-57
2023/09/03 01:26:55;;;;;;;12.32;11.02;;;460.90;2380.80;;;;;;5035047;28;20029;-57
2023/09/03 01:29:21;;;;;;;12.43;11.13;;;460.80;2380.80;;;;;;5025132;28;20040;-56
2023/09/03 01:31:48;;;;;;;13.02;11.30;;;460.80;2380.80;;;;;;5034243;28;20017;-56
2023/09/03 01:34:15;;;;;;;13.57;12.23;;;460.80;2380.80;;;;;;5034694;28;20029;-57
2023/09/03 01:36:41;;;;;;;12.80;11.60;;;436.10;2355.20;;;;;;5034778;28;20013;-57
2023/09/03 01:39:06;;;;;;;16.42;12.15;;;435.90;2355.20;;;;;;5035009;28;20029;-57
2023/09/03 01:41:38;;;;;;;12.07;10.80;;;436.00;2355.20;;;;;;5034559;28;20018;-57
2023/09/03 01:44:08;;;;;;;11.68;10.52;;;435.90;2355.20;;;;;;5034453;28;20033;-56
2023/09/03 01:46:50;;;;;;;13.88;12.48;;;435.90;2355.20;;;;;;5021477;28;20018;-57
2023/09/03 01:49:27;;;;;;;13.68;11.98;;;460.80;2380.80;;;;;;5034593;28;20029;-57
2023/09/03 01:52:16;;;;;;;13.65;12.35;;;435.90;2355.20;;;;;;5034725;28;20006;-56
2023/09/03 01:54:48;;;;;;;13.65;12.23;;;435.80;2355.20;;;;;;5034579;28;20021;-57
2023/09/03 01:57:18;;;;;;;13.30;11.90;;;435.80;2355.20;;;;;;5034270;28;20041;-58
2023/09/03 01:59:54;;;;;;;12.98;11.57;;;435.80;2355.20;;;;;;5034156;28;20018;-57
2023/09/03 02:02:21;;;;;;;13.07;11.73;;;435.80;2355.20;;;;;;5031811;28;20035;-57
2023/09/03 02:04:47;;;;;;;17.60;13.02;;;435.70;2355.20;;;;;;5031231;28;20164;-58
2023/09/03 02:07:12;;;;;;;12.10;10.90;;;435.60;2355.20;;;;;;5031549;28;20502;-57
2023/09/03 02:09:38;;;;;;;13.45;12.05;;;435.60;2355.20;;;;;;5031969;28;20038;-57
2023/09/03 02:12:06;;;;;;;13.52;12.05;;;435.60;2355.20;;;;;;5030757;28;20021;-57
2023/09/03 02:14:32;;;;;;;13.02;11.43;;;435.50;2355.20;;;;;;5031595;28;20105;-56
2023/09/03 02:16:57;;;;;;;13.38;11.40;;;435.50;2355.20;;;;;;5031413;28;20021;-57
2023/09/03 02:19:23;;;;;;;12.93;11.55;;;435.40;2355.20;;;;;;5031264;28;20125;-57
2023/09/03 02:21:50;;;;;;;14.20;10.52;;;435.50;2355.20;;;;;;5029900;28;20025;-56
2023/09/03 02:24:15;;;;;;;11.88;10.68;;;435.60;2355.20;;;;;;5011265;28;20032;-57
2023/09/03 02:26:43;;;;;;;14.05;11.18;;;435.60;2355.20;;;;;;5025913;28;20021;-57
2023/09/03 02:29:09;;;;;;;12.77;11.38;;;435.60;2355.20;;;;;;5031398;28;20033;-58
2023/09/03 02:31:35;;;;;;;12.32;10.88;;;435.60;2355.20;;;;;;5031114;28;20025;-57
2023/09/03 02:34:03;;;;;;;12.05;10.85;;;435.40;2355.20;;;;;;5031089;28;20029;-56
2023/09/03 02:36:30;;;;;;;12.73;10.52;;;435.50;2355.20;;;;;;5030596;28;20029;-57
2023/09/03 02:39:03;;;;;;;12.55;11.27;;;435.40;2355.20;;;;;;5030782;28;20112;-57
2023/09/03 02:41:29;;;;;;;15.05;11.68;;;435.40;2355.20;;;;;;5030796;28;20096;-57
2023/09/03 02:43:57;;;;;;;12.60;10.75;;;435.40;2355.20;;;;;;5030110;28;20065;-57
2023/09/03 02:46:23;;;;;;;12.25;10.95;;;435.40;2355.20;;;;;;5030497;28;20021;-57
2023/09/03 02:48:49;;;;;;;16.58;12.98;;;435.30;2355.20;;;;;;5030588;28;20045;-58
2023/09/03 02:51:15;;;;;;;13.82;11.70;;;435.30;2355.20;;;;;;5029960;28;20129;-57
2023/09/03 02:53:43;;;;;;;16.02;11.35;;;435.20;2355.20;;;;;;5030513;28;20086;-57
2023/09/03 02:56:12;;;;;;;12.82;11.43;;;435.20;2355.20;;;;;;5030588;28;20018;-57
2023/09/03 02:58:39;;;;;;;12.23;10.93;;;435.20;2355.20;;;;;;5030996;28;20029;-57
2023/09/03 03:01:11;;;;;;;14.75;11.90;;;435.20;2355.20;;;;;;5030353;28;20101;-57
2023/09/03 03:03:37;;;;;;;11.63;10.43;;;410.50;2355.20;;;;;;5030011;28;20472;-57
2023/09/03 03:06:03;;;;;;;13.55;12.15;;;410.50;2355.20;;;;;;5030122;28;20064;-57
2023/09/03 03:08:28;;;;;;;12.90;10.25;;;410.50;2355.20;;;;;;5030394;28;20510;-57
2023/09/03 03:11:08;;;;;;;11.63;10.45;;;410.50;2355.20;;;;;;5025467;28;20030;-57
2023/09/03 03:13:34;;;;;;;12.38;10.80;;;410.50;2355.20;;;;;;5022260;28;20036;-57
2023/09/03 03:16:18;;;;;;;12.23;10.93;;;410.40;2355.20;;;;;;5030232;28;20079;-57
2023/09/03 03:18:48;;;;;;;14.15;10.75;;;410.40;2355.20;;;;;;5030384;28;20076;-57
2023/09/03 03:21:19;;;;;;;13.00;11.65;;;410.30;2355.20;;;;;;5030093;28;20021;-57
2023/09/03 03:23:50;;;;;;;11.40;10.20;;;410.30;2355.20;;;;;;5029664;28;20029;-57
2023/09/03 03:26:17;;;;;;;11.02;9.75;;;410.30;2355.20;;;;;;5029794;28;20037;-56
2023/09/03 03:28:42;;;;;;;11.35;10.15;;;410.40;2355.20;;;;;;5029060;28;20038;-57
2023/09/03 03:31:13;;;;;;;12.38;10.60;;;410.30;2355.20;;;;;;5030184;28;20044;-57
2023/09/03 03:33:40;;;;;;;11.40;10.00;;;410.20;2355.20;;;;;;5029848;28;20087;-57
2023/09/03 03:36:06;;;;;;;13.45;12.15;;;410.30;2355.20;;;;;;5029918;28;20112;-57
2023/09/03 03:38:32;;;;;;;13.70;10.50;;;410.20;2355.20;;;;;;5029693;28;20360;-57
2023/09/03 03:41:12;;;;;;;11.90;10.32;;;410.20;2355.20;;;;;;5029285;28;20353;-57
2023/09/03 03:43:40;;;;;;;11.77;10.48;;;410.20;2355.20;;;;;;5016679;28;20032;-56
2023/09/03 03:46:07;;;;;;;14.73;11.10;;;410.30;2355.20;;;;;;5029101;28;20053;-57
2023/09/03 03:48:33;;;;;;;15.80;10.38;;;410.20;2355.20;;;;;;5029465;28;20243;-56
2023/09/03 03:50:59;;;;;;;14.50;10.18;;;410.20;2355.20;;;;;;5016210;28;20109;-57
2023/09/03 03:53:25;;;;;;;12.05;10.82;;;410.20;2355.20;;;;;;5029266;28;20118;-57
2023/09/03 03:56:00;;;;;;;11.38;10.18;;;410.20;2355.20;;;;;;5029059;28;20022;-56
2023/09/03 03:58:28;;;;;;;15.93;10.30;;;410.20;2355.20;;;;;;5029267;28;20033;-56
2023/09/03 04:00:54;;;;;;;11.75;10.15;;;410.10;2355.20;;;;;;5029010;28;20013;-57
2023/09/03 04:03:21;;;;;;;11.95;10.18;;;410.00;2355.20;;;;;;5028964;28;20088;-57
2023/09/03 04:05:58;;;;;;;11.00;9.43;;;410.00;2355.20;;;;;;5029027;28;20033;-57
2023/09/03 04:08:25;;;;;;;12.23;10.75;;;410.00;2355.20;;;;;;5029134;28;20379;-57
2023/09/03 04:11:09;;;;;;;11.50;10.40;;;410.10;2355.20;;;;;;5029005;28;20032;-57
2023/09/03 04:13:35;;;;;;;11.77;10.55;;;410.20;2355.20;;;;;;5028807;28;20030;-57
2023/09/03 04:16:06;;;;;;;11.40;10.30;;;410.20;2355.20;;;;;;5016141;28;20041;-57
2023/09/03 04:18:32;;;;;;;11.95;10.10;;;410.20;2355.20;;;;;;5029034;28;20029;-56
2023/09/03 04:20:58;;;;;;;10.10;9.05;;;410.30;2355.20;;;;;;5028925;28;20426;-57
2023/09/03 04:23:24;;;;;;;13.40;12.00;;;410.30;2355.20;;;;;;5028302;28;20037;-57
2023/09/03 04:25:54;;;;;;;11.65;10.48;;;410.30;2355.20;;;;;;5028522;28;20528;-57
2023/09/03 04:28:20;;;;;;;12.68;10.73;;;410.20;2355.20;;;;;;5028904;28;20036;-57
2023/09/03 04:30:46;;;;;;;11.93;10.68;;;410.20;2355.20;;;;;;5028947;28;20084;-57
2023/09/03 04:33:12;;;;;;;11.90;10.43;;;410.20;2355.20;;;;;;5028773;28;20026;-57
2023/09/03 04:35:38;;;;;;;11.95;10.65;;;410.30;2355.20;;;;;;5029108;28;20021;-56
2023/09/03 04:38:05;;;;;;;15.30;11.48;;;410.40;2355.20;;;;;;5028389;28;20546;-57
2023/09/03 04:40:34;;;;;;;13.13;10.65;;;410.50;2355.20;;;;;;5029321;28;20030;-56
2023/09/03 04:43:00;;;;;;;11.75;10.30;;;410.50;2355.20;;;;;;5028363;28;20483;-56
2023/09/03 04:45:26;;;;;;;12.13;10.82;;;435.30;2355.20;;;;;;5028455;28;20454;-57
2023/09/03 04:47:52;;;;;;;12.95;10.63;;;435.20;2355.20;;;;;;5028584;28;20030;-57
2023/09/03 04:50:18;;;;;;;12.60;10.82;;;435.30;2355.20;;;;;;5028817;28;20056;-57
2023/09/03 04:52:44;;;;;;;11.15;9.95;;;435.40;2355.20;;;;;;5028459;28;20456;-57
2023/09/03 04:55:13;;;;;;;11.88;10.70;;;435.40;2355.20;;;;;;5028555;28;20491;-57
2023/09/03 04:57:38;;;;;;;16.80;10.90;;;435.30;2355.20;;;;;;5028577;28;20486;-57
2023/09/03 05:00:04;;;;;;;11.88;10.68;;;435.40;2355.20;;;;;;5028625;28;20021;-57
2023/09/03 05:02:31;;;;;;;16.13;9.52;;;435.50;2355.20;;;;;;5028728;28;20025;-57
2023/09/03 05:04:58;;;;;;;11.45;9.63;;;435.70;2355.20;;;;;;5028568;28;20049;-59
2023/09/03 05:07:24;;;;;;;10.30;8.85;;;460.80;2380.80;;;;;;5028364;28;20043;-58
2023/09/03 05:09:52;;;;;;;9.18;8.30;;;461.70;2380.80;;;;;;5028624;28;20033;-57
2023/09/03 05:12:18;;;;;;;9.70;8.50;;;486.90;2380.80;;;;;;5028372;28;20029;-57
2023/09/03 05:14:43;;;;;;;9.18;8.27;;;512.00;2380.80;;;;;;5028118;28;20121;-57
2023/09/03 05:17:09;;;;;;;9.60;7.78;;;512.90;2380.80;;;;;;5028623;28;20030;-57
2023/09/03 05:19:35;;;;;;;11.82;8.23;;;537.90;2406.40;;;;;;5028321;28;20033;-57
2023/09/03 05:22:01;;;;;;;9.43;8.30;;;538.00;2406.40;;;;;;5028397;28;20104;-58
2023/09/03 05:24:26;;;;;;;10.07;8.07;;;538.10;2406.40;;;;;;5027858;28;20029;-57
2023/09/03 05:26:52;;;;;;;9.02;7.88;;;563.40;2432.00;;;;;;5028065;28;20482;-58
2023/09/03 05:29:18;;;;;;;8.75;7.60;;;563.20;2432.00;;;;;;5028436;28;20065;-57
2023/09/03 05:31:43;;;;;;;8.77;7.88;;;589.50;2432.00;;;;;;5027988;28;20055;-57
2023/09/03 05:34:09;;;;;;;7.90;7.10;;;640.10;2304.00;;;;;;5028783;28;20026;-57
2023/09/03 05:36:35;;;;;;;8.13;7.32;;;640.70;2201.60;;;;;;5028593;28;20495;-57
2023/09/03 05:39:01;;;;;;;8.38;7.50;;;665.90;2176.00;;;;;;5032073;28;20462;-58
2023/09/03 05:41:27;;;;;;;7.47;6.55;;;666.50;2073.60;;;;;;5031565;28;20360;-58
2023/09/03 05:43:53;;;;;;;9.63;7.50;;;666.50;2073.60;;;;;;5031488;28;20029;-58
2023/09/03 05:46:20;;;;;;;8.00;7.00;;;666.00;2073.60;;;;;;5031664;28;20033;-57
2023/09/03 05:48:50;;;;;;;8.48;7.57;;;640.90;2124.80;;;;;;5031835;28;20033;-58
2023/09/03 05:51:15;;;;;;;16.45;8.13;;;666.00;2124.80;;;;;;5031741;28;20052;-58
2023/09/03 05:53:41;;;;;;;8.02;7.30;;;717.70;1971.20;;;;;;5031829;28;20056;-58
2023/09/03 05:56:12;;;;;;;9.10;7.03;;;819.30;1766.40;;;;;;5031427;28;20021;-58
2023/09/03 05:58:38;;;;;;;9.30;7.97;;;871.20;1561.60;;;;;;5031873;28;20491;-58
2023/09/03 06:01:08;;;;;;;8.77;7.88;;;870.60;1536.00;;;;;;5031405;28;20122;-58
2023/09/03 06:03:35;;;;;;;9.50;8.70;;;845.20;1587.20;;;;;;5031138;28;20036;-59
2023/09/03 06:06:03;;;;;;;11.95;8.73;;;871.30;1484.80;;;;;;5031270;28;20018;-59
2023/09/03 06:08:28;;;;;;;8.68;7.88;;;922.10;1433.60;;;;;;5031824;28;20147;-58
2023/09/03 06:10:56;;;;;;;9.20;7.43;;;896.10;1459.20;;;;;;5031512;28;20018;-59
2023/09/03 06:13:25;;;;;;;8.20;7.50;;;896.00;1459.20;;;;;;5031559;28;20038;-58
2023/09/03 06:15:51;;;;;;;9.20;7.28;;;896.40;1433.60;;;;;;5031154;28;20075;-58
2023/09/03 06:18:17;;;;;;;11.00;9.07;;;896.40;1433.60;;;;;;5031375;28;20034;-58
2023/09/03 06:20:42;;;;;;;8.50;7.80;;;948.00;1331.20;;;;;;5031060;28;20105;-59
2023/09/03 06:23:09;;;;;;;8.23;7.53;;;973.20;1331.20;;;;;;5031041;28;20418;-59
2023/09/03 06:25:36;;;;;;;8.25;7.55;;;999.20;1280.00;;;;;;5017071;28;20033;-59
2023/09/03 06:28:03;;;;;;;8.93;8.23;;;1049.80;1228.80;;;;;;5030930;28;20029;-58
2023/09/03 06:30:28;;;;;;;9.20;8.50;;;1075.70;1152.00;;;;;;5030839;28;20112;-59
2023/09/03 06:32:54;;;;;;;9.05;8.25;;;1049.70;1203.20;;;;;;5030855;28;20108;-59
2023/09/03 06:35:20;;;;;;;8.02;7.32;;;1049.60;1228.80;;;;;;5030673;28;20467;-59
2023/09/03 06:37:45;;;;;;;9.23;8.38;;;1024.90;1203.20;;;;;;5030650;28;20104;-59
2023/09/03 06:40:14;;;;;;;10.90;8.27;;;1024.70;1203.20;;;;;;5030983;28;20048;-59
2023/09/03 06:42:41;;;;;;;9.45;8.57;;;1024.70;1203.20;;;;;;5030494;28;20037;-61
2023/09/03 06:45:07;;;;;;;10.00;9.15;;;1050.50;1152.00;;;;;;5017609;28;20061;-59
2023/09/03 06:47:33;;;;;;;8.65;8.05;;;1100.90;1126.40;;;;;;5030459;28;20013;-59
2023/09/03 06:49:59;;;;;;;10.13;9.32;;;1101.30;1126.40;;;;;;5030469;28;20503;-60
2023/09/03 06:52:25;;;;;;;10.80;9.60;;;1101.60;1100.80;;;;;;5030256;28;20097;-60
2023/09/03 06:54:50;;;;;;;9.95;9.18;;;1075.60;1152.00;;;;;;5030609;28;20025;-59
2023/09/03 06:57:16;;;;;;;11.10;10.18;;;1075.90;1126.40;;;;;;5029961;28;20025;-59
2023/09/03 06:59:42;;;;;;;10.55;9.75;;;1075.70;1126.40;;;;;;5017584;28;20017;-60
2023/09/03 07:02:08;;;;;;;10.60;9.90;;;1101.00;1152.00;;;;;;5030603;28;20065;-60
2023/09/03 07:04:37;;;;;;;10.50;9.60;;;1126.80;1100.80;;;;;;5020904;28;20379;-60
2023/09/03 07:07:03;;;;;;;11.65;10.43;;;1126.40;1126.40;;;;;;5030245;28;20375;-59
2023/09/03 07:09:31;;;;;;;12.05;11.15;;;1126.60;1126.40;;;;;;5030205;28;20095;-59
2023/09/03 07:11:57;;;;;;;12.43;11.52;;;1126.60;1126.40;;;;;;5029858;28;20091;-59
2023/09/03 07:14:22;;;;;;;11.23;10.52;;;1101.60;1100.80;;;;;;5030070;28;20033;-59
2023/09/03 07:16:48;;;;;;;12.45;11.55;;;1126.40;1126.40;;;;;;5018712;28;20028;-61
2023/09/03 07:19:13;;;;;;;13.80;12.88;;;1152.20;1075.20;;;;;;5015706;28;20124;-60
2023/09/03 07:21:39;;;;;;;12.57;11.63;;;1152.20;1075.20;;;;;;5030270;28;20494;-59
2023/09/03 07:24:05;;;;;;;13.27;11.77;;;;;;;;;;5029875;28;20422;-59
2023/09/03 07:26:31;;;;;;;12.57;11.30;;;1203.30;998.40;;;;;;5029907;28;20049;-59
2023/09/03 07:28:57;;;;;;;11.57;10.65;;;1152.40;1024.00;;;;;;5029653;28;20499;-59
2023/09/03 07:31:22;;;;;;;12.65;11.70;;;1178.50;998.40;;;;;;5029989;28;20021;-59
2023/09/03 07:33:48;;;;;;;13.88;12.88;;;1203.90;998.40;;;;;;5030387;28;20101;-60
2023/09/03 07:36:14;;;;;;;13.20;12.40;;;1203.80;972.80;;;;;;5029685;28;20017;-60
2023/09/03 07:38:40;;;;;;;10.95;10.07;;;1203.90;972.80;;;;;;5029412;28;20483;-59
2023/09/03 07:41:06;;;;;;;13.15;12.15;;;1152.50;1024.00;;;;;;5030083;28;20028;-60
2023/09/03 07:43:31;;;;;;;11.85;10.95;;;1152.50;1024.00;;;;;;5029335;28;20357;-59
2023/09/03 07:45:57;;;;;;;14.65;13.40;;;1126.90;1049.60;;;;;;5029507;28;20499;-59
2023/09/03 07:48:23;;;;;;;13.20;12.27;;;1152.60;1024.00;;;;;;5029785;28;20033;-60
2023/09/03 07:50:49;;;;;;;14.30;13.30;;;1178.00;998.40;;;;;;5029896;28;20033;-60
2023/09/03 07:53:15;;;;;;;14.75;13.52;;;1203.90;972.80;;;;;;5029336;28;20025;-60
2023/09/03 07:55:41;;;;;;;15.13;14.15;;;1178.30;998.40;;;;;;5029436;28;20029;-59
2023/09/03 07:58:06;;;;;;;14.82;13.93;;;1203.90;972.80;;;;;;5029262;28;20038;-60
2023/09/03 08:00:32;;;;;;;15.90;14.70;;;1229.30;972.80;;;;;;5029088;28;20031;-60
2023/09/03 08:02:58;;;;;;;16.23;15.02;;;1203.70;998.40;;;;;;5029010;28;20491;-60
2023/09/03 08:05:24;;;;;;;15.13;14.07;;;1177.70;998.40;;;;;;5027857;28;20101;-60
2023/09/03 08:07:50;;;;;;;15.07;13.85;;;1228.80;972.80;;;;;;5029282;28;20036;-60
2023/09/03 08:10:16;;;;;;;16.40;15.40;;;1229.20;998.40;;;;;;5028937;28;20034;-60
2023/09/03 08:12:42;;;;;;;34.00;31.20;;;1203.90;998.40;;;;;;5027482;28;20018;-59
2023/09/03 08:15:08;;;;;;;16.35;15.32;;;1229.70;947.20;;;;;;5029064;28;20037;-60
2023/09/03 08:17:33;;;;;;;15.15;14.15;;;1178.00;972.80;;;;;;5028850;28;20067;-60
2023/09/03 08:19:59;;;;;;;14.55;13.65;;;1177.70;972.80;;;;;;5029430;28;20029;-60
2023/09/03 08:22:25;;;;;;;14.15;13.00;;;1152.50;947.20;;;;;;5028770;28;20357;-60
2023/09/03 08:24:51;;;;;;;129.95;119.60;;;1152.10;998.40;;;;;;5028782;28;20386;-60
2023/09/03 08:27:16;;;;;;;22.90;21.17;;;1152.70;998.40;;;;;;5028945;28;20029;-59
2023/09/03 08:29:42;;;;;;;18.88;17.67;;;1178.20;947.20;;;;;;5028924;28;20068;-60
2023/09/03 08:32:08;;;;;;;15.32;14.32;;;1178.00;947.20;;;;;;5029209;28;20506;-59
2023/09/03 08:34:33;;;;;;;14.27;13.38;;;1203.40;947.20;;;;;;5029004;28;20021;-60
2023/09/03 08:36:59;;;;;;;11.65;10.75;;;1203.30;947.20;;;;;;5028541;28;20025;-60
2023/09/03 08:39:25;;;;;;;12.88;11.88;;;1178.00;921.60;;;;;;5028906;28;20076;-60
2023/09/03 08:41:51;;;;;;;11.32;10.52;;;1126.50;998.40;;;;;;5028295;28;20024;-59
2023/09/03 08:44:49;;;;;;;11.40;10.60;;;1075.20;1024.00;;;;;;5028744;28;20135;-59
2023/09/03 08:47:17;;;;;;;10.32;9.43;;;1050.00;1075.20;;;;;;5045868;28;20111;-59
2023/09/03 08:49:44;;;;;;;11.35;10.40;;;973.20;1126.40;;;;;;5045783;28;20047;-59
2023/09/03 08:52:10;;;;;;;10.15;9.15;;;947.70;1126.40;;;;;;5046148;28;20033;-60
2023/09/03 08:54:38;;;;;;;10.30;9.40;;;947.30;1177.60;;;;;;5046083;28;20030;-59
2023/09/03 08:57:08;;;;;;;14.40;13.30;;;972.80;1152.00;;;;;;5045937;28;20083;-59
2023/09/03 08:59:34;;;;;;;9.52;8.65;;;947.70;1177.60;;;;;;5046077;28;20080;-59
2023/09/03 09:02:00;;;;;;;9.65;8.70;;;947.80;1126.40;;;;;;5046404;28;20033;-58
2023/09/03 09:04:30;;;;;;;9.38;8.48;;;922.00;1203.20;;;;;;5046091;28;20146;-58
2023/09/03 09:06:59;;;;;;;8.90;8.20;;;896.50;1228.80;;;;;;5045894;28;20086;-58
2023/09/03 09:09:29;;;;;;;9.10;8.40;;;896.20;1228.80;;;;;;5045899;28;20049;-58
2023/09/03 09:12:01;;;;;;;8.15;6.95;;;896.10;1228.80;;;;;;5047105;28;20108;-60
2023/09/03 09:14:47;;;;;;;8.52;7.82;;;871.30;1228.80;;;;;;5048902;28;20059;-58
2023/09/03 09:17:13;;;;;;;8.95;8.15;;;870.70;1280.00;;;;;;5048370;28;20118;-58
2023/09/03 09:19:39;;;;;;;9.32;8.35;;;845.70;1305.60;;;;;;5047651;28;20470;-58
2023/09/03 09:22:05;;;;;;;8.80;7.90;;;870.70;1305.60;;;;;;5049852;28;20036;-59
2023/09/03 09:24:39;;;;;;;11.50;7.90;;;845.40;1331.20;;;;;;5037872;28;20033;-58
2023/09/03 09:27:16;;;;;;;7.55;6.72;;;845.70;1305.60;;;;;;5031710;28;20017;-58
2023/09/03 09:29:43;;;;;;;12.32;8.15;;;870.60;1280.00;;;;;;5032120;28;20399;-59
2023/09/03 09:32:22;;;;;;;9.35;8.07;;;871.20;1305.60;;;;;;5032496;28;20364;-58
2023/09/03 09:34:48;;;;;;;8.68;7.93;;;871.30;1280.00;;;;;;5031836;28;20025;-58
2023/09/03 09:37:14;;;;;;;10.27;9.38;;;871.10;1280.00;;;;;;5031865;28;20499;-59
2023/09/03 09:39:47;;;;;;;10.00;9.10;;;870.70;1305.60;;;;;;5032097;28;20025;-59
2023/09/03 09:42:18;;;;;;;23.52;8.98;;;870.90;1305.60;;;;;;5031377;28;20520;-58
2023/09/03 09:44:56;;;;;;;8.02;7.40;;;845.10;1331.20;;;;;;5031272;28;20084;-58
2023/09/03 09:47:22;;;;;;;12.10;8.07;;;845.30;1331.20;;;;;;5032210;28;20172;-58
2023/09/03 09:49:48;;;;;;;8.07;7.38;;;845.70;1305.60;;;;;;5031623;28;20036;-59
2023/09/03 09:52:15;;;;;;;7.63;6.85;;;845.20;1356.80;;;;;;5032058;28;20021;-59
2023/09/03 09:54:42;;;;;;;10.05;7.88;;;845.40;1331.20;;;;;;5031495;28;20025;-60
2023/09/03 09:57:14;;;;;;;10.40;8.57;;;845.20;1356.80;;;;;;5031926;28;20030;-59
2023/09/03 09:59:44;;;;;;;;;;;845.20;1408.00;;;;;;5031870;28;20021;-60
2023/09/03 10:02:13;;;;;;;8.40;7.47;;;845.60;1382.40;;;;;;5031585;28;19912;-59
2023/09/03 10:04:43;;;;;;;8.35;7.53;;;845.40;1356.80;;;;;;5031989;28;20026;-60
2023/09/03 10:07:09;;;;;;;9.45;7.45;;;845.40;1382.40;;;;;;5031513;28;20101;-60
2023/09/03 10:09:35;;;;;;;8.73;7.85;;;819.80;1331.20;;;;;;5031515;28;20025;-59
2023/09/03 10:12:04;;;;;;;10.75;8.45;;;820.00;1331.20;;;;;;5030814;28;20044;-61
2023/09/03 10:14:30;;;;;;;8.95;7.90;;;819.70;1331.20;;;;;;5031810;28;20071;-59
2023/09/03 10:16:58;;;;;;;12.05;7.75;;;819.60;1356.80;;;;;;5030319;28;20021;-60
2023/09/03 10:19:27;;;;;;;8.25;7.38;;;820.00;1382.40;;;;;;5030587;28;20064;-59
2023/09/03 10:21:59;;;;;;;8.50;7.70;;;819.90;1408.00;;;;;;5030728;28;20057;-59
2023/09/03 10:24:26;;;;;;;7.50;6.70;;;819.30;1356.80;;;;;;5016753;28;20037;-59
2023/09/03 10:26:58;;;;;;;7.93;7.18;;;794.20;1408.00;;;;;;5031111;28;20021;-59
2023/09/03 10:29:25;;;;;;;8.80;7.80;;;793.90;1433.60;;;;;;5030402;28;20498;-59
2023/09/03 10:31:54;;;;;;;7.57;6.22;;;794.40;1459.20;;;;;;5014670;28;20069;-61
2023/09/03 10:34:20;;;;;;;6.28;5.68;;;794.30;1382.40;;;;;;5018558;28;20475;-59
2023/09/03 10:37:20;;;;;;;7.20;6.43;;;794.30;1408.00;;;;;;5030510;28;20488;-60
2023/09/03 10:39:46;;;;;;;8.30;7.47;;;794.50;1408.00;;;;;;5048246;28;20118;-59
2023/09/03 10:42:17;;;;;;;10.10;6.95;;;794.50;1408.00;;;;;;5047921;28;20116;-59
2023/09/03 10:44:49;;;;;;;7.85;7.10;;;794.10;1408.00;;;;;;5048271;28;20136;-60
2023/09/03 10:47:17;;;;;;;7.55;6.85;;;793.80;1408.00;;;;;;5047529;28;20529;-59
2023/09/03 10:49:48;;;;;;;6.85;6.15;;;794.20;1408.00;;;;;;5047652;28;20132;-60
2023/09/03 10:52:31;;;;;;;7.78;6.03;;;793.80;1382.40;;;;;;5048182;28;20471;-60
2023/09/03 10:55:21;;;;;;;11.02;5.60;;;794.00;1382.40;;;;;;5040289;28;20033;-60
2023/09/03 10:58:08;;;;;;;11.88;6.47;;;793.60;1382.40;;;;;;5046960;28;20128;-59
2023/09/03 11:00:34;;;;;;;7.45;6.70;;;768.90;1382.40;;;;;;5048053;28;20195;-59
2023/09/03 11:03:16;;;;;;;6.50;5.90;;;793.60;1382.40;;;;;;5048033;28;20461;-59
2023/09/03 11:06:21;;;;;;;6.68;6.07;;;793.90;1382.40;;;;;;5047902;28;20082;-60
2023/09/03 11:09:10;;;;;;;7.25;6.40;;;794.10;1408.00;;;;;;5047627;28;20123;-59
2023/09/03 11:11:38;;;;;;;9.05;7.03;;;793.70;1408.00;;;;;;5047780;28;20509;-60
2023/09/03 11:14:07;;;;;;;9.95;8.45;;;793.70;1433.60;;;;;;5047654;28;20029;-59
2023/09/03 11:16:35;;;;;;;7.80;6.95;;;768.90;1433.60;;;;;;5010204;28;20040;-59
2023/09/03 11:19:04;;;;;;;8.02;6.40;;;768.90;1408.00;;;;;;5010558;28;20121;-59
2023/09/03 11:21:30;;;;;;;8.38;6.93;;;793.60;1408.00;;;;;;5011940;28;20034;-59
2023/09/03 11:24:16;;;;;;;7.38;6.30;;;793.70;1408.00;;;;;;5022972;28;20037;-59
2023/09/03 11:26:42;;;;;;;14.95;7.50;;;794.00;1408.00;;;;;;5016570;28;20028;-59
2023/09/03 11:29:22;;;;;;;7.50;6.80;;;794.50;1356.80;;;;;;5029323;28;20479;-59
2023/09/03 11:31:49;;;;;;;8.48;7.60;;;794.40;1382.40;;;;;;5029805;28;20037;-59
2023/09/03 11:34:23;;;;;;;8.10;7.30;;;819.30;1382.40;;;;;;5029325;28;20392;-59
2023/09/03 11:36:49;;;;;;;9.25;7.63;;;794.50;1382.40;;;;;;5029937;28;20045;-58
2023/09/03 11:39:16;;;;;;;7.97;7.20;;;819.60;1408.00;;;;;;5029492;28;20026;-59
2023/09/03 11:41:46;;;;;;;8.20;6.38;;;819.30;1356.80;;;;;;5029813;28;20083;-58
2023/09/03 11:44:23;;;;;;;8.38;7.60;;;794.10;1382.40;;;;;;5027576;28;20033;-59
2023/09/03 11:47:01;;;;;;;7.45;6.57;;;794.40;1382.40;;;;;;5027654;28;20033;-58
2023/09/03 11:49:27;;;;;;;8.18;7.40;;;794.20;1382.40;;;;;;5028698;28;20052;-57
2023/09/03 11:51:53;;;;;;;8.88;8.00;;;794.10;1408.00;;;;;;5027782;28;20333;-59
2023/09/03 11:54:25;;;;;;;7.10;6.40;;;819.30;1382.40;;;;;;5020566;28;20032;-59
2023/09/03 11:56:54;;;;;;;7.77;7.07;;;819.60;1382.40;;;;;;5029345;28;20029;-59
2023/09/03 11:59:20;;;;;;;11.60;7.97;;;819.70;1356.80;;;;;;5029108;28;20041;-59
2023/09/03 12:01:46;;;;;;;7.63;6.45;;;819.90;1382.40;;;;;;5029362;28;20438;-59
2023/09/03 12:04:12;;;;;;;7.80;7.10;;;819.70;1356.80;;;;;;5029328;28;20093;-59
2023/09/03 12:06:38;;;;;;;7.90;6.90;;;819.70;1356.80;;;;;;5029599;28;20074;-57
2023/09/03 12:09:04;;;;;;;8.23;7.45;;;819.90;1356.80;;;;;;5029082;28;20033;-58
2023/09/03 12:11:30;;;;;;;8.32;7.13;;;820.00;1382.40;;;;;;5027893;28;20017;-59
2023/09/03 12:13:56;;;;;;;8.35;6.63;;;820.10;1382.40;;;;;;5028939;28;20029;-58